sensor_id;sensor_type;location;lat;lon;timestamp;P1;durP1;ratioP1;P2;durP2;ratioP2
20649;SDS011;10484;48.736;9.332;2023-04-24T00:00:36;0.70;;;0.50;;
20649;SDS011;10484;48.736;9.332;2023-04-24T00:03:03;0.50;;;0.50;;
20649;SDS011;10484;48.736;9.332;2023-04-24T00:05:28;1.00;;;0.67;;
20649;SDS011;10484;48.736;9.332;2023-04-24T00:07:54;0.90;;;0.70;;
20649;SDS011;10484;48.736;9.332;2023-04-24T00:10:20;1.20;;;0.60;;
20649;SDS011;10484;48.736;9.332;2023-04-24T00:12:46;0.53;;;0.43;;
20649;SDS011;10484;48.736;9.332;2023-04-24T00:15:12;0.60;;;0.53;;
20649;SDS011;10484;48.736;9.332;2023-04-24T00:17:38;1.13;;;1.03;;
20649;SDS011;10484;48.736;9.332;2023-04-24T00:20:04;2.90;;;0.90;;
20649;SDS011;10484;48.736;9.332;2023-04-24T00:22:31;1.00;;;0.40;;
20649;SDS011;10484;48.736;9.332;2023-04-24T00:24:58;1.63;;;0.80;;
20649;SDS011;10484;48.736;9.332;2023-04-24T00:27:23;0.93;;;0.60;;
20649;SDS011;10484;48.736;9.332;2023-04-24T00:29:49;1.53;;;0.37;;
20649;SDS011;10484;48.736;9.332;2023-04-24T00:32:15;1.23;;;0.60;;
20649;SDS011;10484;48.736;9.332;2023-04-24T00:34:41;0.50;;;0.47;;
20649;SDS011;10484;48.736;9.332;2023-04-24T00:37:06;0.93;;;0.60;;
20649;SDS011;10484;48.736;9.332;2023-04-24T00:39:32;0.70;;;0.57;;
20649;SDS011;10484;48.736;9.332;2023-04-24T00:41:58;0.77;;;0.63;;
20649;SDS011;10484;48.736;9.332;2023-04-24T00:44:24;0.60;;;0.60;;
20649;SDS011;10484;48.736;9.332;2023-04-24T00:46:49;1.27;;;0.67;;
20649;SDS011;10484;48.736;9.332;2023-04-24T00:49:19;1.30;;;0.47;;
20649;SDS011;10484;48.736;9.332;2023-04-24T00:51:45;0.83;;;0.73;;
20649;SDS011;10484;48.736;9.332;2023-04-24T00:54:12;0.93;;;0.50;;
20649;SDS011;10484;48.736;9.332;2023-04-24T00:56:38;1.30;;;0.57;;
20649;SDS011;10484;48.736;9.332;2023-04-24T00:59:05;1.53;;;1.10;;
20649;SDS011;10484;48.736;9.332;2023-04-24T01:01:31;1.50;;;0.70;;
20649;SDS011;10484;48.736;9.332;2023-04-24T01:03:57;0.83;;;0.70;;
20649;SDS011;10484;48.736;9.332;2023-04-24T01:06:23;1.23;;;0.73;;
20649;SDS011;10484;48.736;9.332;2023-04-24T01:08:52;1.53;;;0.60;;
20649;SDS011;10484;48.736;9.332;2023-04-24T01:11:19;1.00;;;0.83;;
20649;SDS011;10484;48.736;9.332;2023-04-24T01:13:47;0.50;;;0.50;;
20649;SDS011;10484;48.736;9.332;2023-04-24T01:16:13;0.90;;;0.53;;
20649;SDS011;10484;48.736;9.332;2023-04-24T01:18:42;1.37;;;0.70;;
20649;SDS011;10484;48.736;9.332;2023-04-24T01:21:08;0.70;;;0.60;;
20649;SDS011;10484;48.736;9.332;2023-04-24T01:23:34;0.80;;;0.60;;
20649;SDS011;10484;48.736;9.332;2023-04-24T01:26:00;1.03;;;0.70;;
20649;SDS011;10484;48.736;9.332;2023-04-24T01:28:26;5.00;;;0.77;;
20649;SDS011;10484;48.736;9.332;2023-04-24T01:30:52;0.83;;;0.70;;
20649;SDS011;10484;48.736;9.332;2023-04-24T01:33:18;0.60;;;0.60;;
20649;SDS011;10484;48.736;9.332;2023-04-24T01:35:46;0.73;;;0.73;;
20649;SDS011;10484;48.736;9.332;2023-04-24T01:38:12;0.77;;;0.60;;
20649;SDS011;10484;48.736;9.332;2023-04-24T01:40:38;1.03;;;1.03;;
20649;SDS011;10484;48.736;9.332;2023-04-24T01:43:04;1.40;;;0.60;;
20649;SDS011;10484;48.736;9.332;2023-04-24T01:45:30;0.70;;;0.70;;
20649;SDS011;10484;48.736;9.332;2023-04-24T01:47:55;1.17;;;0.80;;
20649;SDS011;10484;48.736;9.332;2023-04-24T01:50:21;1.60;;;0.60;;
20649;SDS011;10484;48.736;9.332;2023-04-24T01:52:47;1.63;;;0.80;;
20649;SDS011;10484;48.736;9.332;2023-04-24T01:55:13;0.60;;;0.50;;
20649;SDS011;10484;48.736;9.332;2023-04-24T01:57:38;1.50;;;0.47;;
20649;SDS011;10484;48.736;9.332;2023-04-24T02:00:05;1.00;;;0.60;;
20649;SDS011;10484;48.736;9.332;2023-04-24T02:02:31;1.23;;;0.50;;
20649;SDS011;10484;48.736;9.332;2023-04-24T02:04:57;0.73;;;0.63;;
20649;SDS011;10484;48.736;9.332;2023-04-24T02:07:23;0.60;;;0.50;;
20649;SDS011;10484;48.736;9.332;2023-04-24T02:09:49;1.80;;;0.60;;
20649;SDS011;10484;48.736;9.332;2023-04-24T02:12:14;0.70;;;0.60;;
20649;SDS011;10484;48.736;9.332;2023-04-24T02:14:42;0.90;;;0.70;;
20649;SDS011;10484;48.736;9.332;2023-04-24T02:17:08;0.80;;;0.80;;
20649;SDS011;10484;48.736;9.332;2023-04-24T02:19:33;1.00;;;0.60;;
20649;SDS011;10484;48.736;9.332;2023-04-24T02:21:59;0.63;;;0.50;;
20649;SDS011;10484;48.736;9.332;2023-04-24T02:24:24;2.30;;;0.73;;
20649;SDS011;10484;48.736;9.332;2023-04-24T02:26:50;2.30;;;0.60;;
20649;SDS011;10484;48.736;9.332;2023-04-24T02:29:16;0.80;;;0.60;;
20649;SDS011;10484;48.736;9.332;2023-04-24T02:31:41;1.77;;;0.53;;
20649;SDS011;10484;48.736;9.332;2023-04-24T02:34:07;1.00;;;0.67;;
20649;SDS011;10484;48.736;9.332;2023-04-24T02:36:32;1.20;;;0.53;;
20649;SDS011;10484;48.736;9.332;2023-04-24T02:38:58;0.97;;;0.73;;
20649;SDS011;10484;48.736;9.332;2023-04-24T02:41:24;0.70;;;0.60;;
20649;SDS011;10484;48.736;9.332;2023-04-24T02:43:50;3.63;;;0.60;;
20649;SDS011;10484;48.736;9.332;2023-04-24T02:46:15;0.90;;;0.40;;
20649;SDS011;10484;48.736;9.332;2023-04-24T02:48:41;0.97;;;0.60;;
20649;SDS011;10484;48.736;9.332;2023-04-24T02:51:06;0.80;;;0.50;;
20649;SDS011;10484;48.736;9.332;2023-04-24T02:53:32;0.93;;;0.60;;
20649;SDS011;10484;48.736;9.332;2023-04-24T02:55:57;2.50;;;0.60;;
20649;SDS011;10484;48.736;9.332;2023-04-24T02:58:23;0.93;;;0.93;;
20649;SDS011;10484;48.736;9.332;2023-04-24T03:00:52;0.60;;;0.40;;
20649;SDS011;10484;48.736;9.332;2023-04-24T03:03:19;0.53;;;0.43;;
20649;SDS011;10484;48.736;9.332;2023-04-24T03:05:45;1.83;;;0.50;;
20649;SDS011;10484;48.736;9.332;2023-04-24T03:08:11;1.33;;;0.73;;
20649;SDS011;10484;48.736;9.332;2023-04-24T03:10:36;3.20;;;0.77;;
20649;SDS011;10484;48.736;9.332;2023-04-24T03:13:02;0.70;;;0.50;;
20649;SDS011;10484;48.736;9.332;2023-04-24T03:15:27;0.70;;;0.50;;
20649;SDS011;10484;48.736;9.332;2023-04-24T03:17:53;2.10;;;0.67;;
20649;SDS011;10484;48.736;9.332;2023-04-24T03:20:18;1.33;;;0.57;;
20649;SDS011;10484;48.736;9.332;2023-04-24T03:22:44;0.80;;;0.57;;
20649;SDS011;10484;48.736;9.332;2023-04-24T03:25:10;0.60;;;0.50;;
20649;SDS011;10484;48.736;9.332;2023-04-24T03:27:35;0.97;;;0.50;;
20649;SDS011;10484;48.736;9.332;2023-04-24T03:30:01;0.50;;;0.50;;
20649;SDS011;10484;48.736;9.332;2023-04-24T03:32:27;1.43;;;0.60;;
20649;SDS011;10484;48.736;9.332;2023-04-24T03:34:52;2.27;;;0.50;;
20649;SDS011;10484;48.736;9.332;2023-04-24T03:37:18;0.90;;;0.50;;
20649;SDS011;10484;48.736;9.332;2023-04-24T03:39:44;2.97;;;0.97;;
20649;SDS011;10484;48.736;9.332;2023-04-24T03:42:09;0.70;;;0.40;;
20649;SDS011;10484;48.736;9.332;2023-04-24T03:44:35;1.20;;;0.50;;
20649;SDS011;10484;48.736;9.332;2023-04-24T03:47:01;1.03;;;0.40;;
20649;SDS011;10484;48.736;9.332;2023-04-24T03:49:26;0.60;;;0.40;;
20649;SDS011;10484;48.736;9.332;2023-04-24T03:51:52;0.70;;;0.50;;
20649;SDS011;10484;48.736;9.332;2023-04-24T03:54:18;5.27;;;0.97;;
20649;SDS011;10484;48.736;9.332;2023-04-24T03:56:44;1.27;;;0.40;;
20649;SDS011;10484;48.736;9.332;2023-04-24T03:59:10;1.23;;;0.60;;
20649;SDS011;10484;48.736;9.332;2023-04-24T04:01:36;0.87;;;0.40;;
20649;SDS011;10484;48.736;9.332;2023-04-24T04:04:05;0.60;;;0.30;;
20649;SDS011;10484;48.736;9.332;2023-04-24T04:06:31;0.70;;;0.50;;
20649;SDS011;10484;48.736;9.332;2023-04-24T04:08:57;2.40;;;0.83;;
20649;SDS011;10484;48.736;9.332;2023-04-24T04:11:24;0.53;;;0.40;;
20649;SDS011;10484;48.736;9.332;2023-04-24T04:13:49;1.17;;;0.70;;
20649;SDS011;10484;48.736;9.332;2023-04-24T04:16:15;1.03;;;0.63;;
20649;SDS011;10484;48.736;9.332;2023-04-24T04:18:43;0.60;;;0.60;;
20649;SDS011;10484;48.736;9.332;2023-04-24T04:21:09;2.80;;;0.97;;
20649;SDS011;10484;48.736;9.332;2023-04-24T04:23:35;1.47;;;0.57;;
20649;SDS011;10484;48.736;9.332;2023-04-24T04:26:01;0.70;;;0.40;;
20649;SDS011;10484;48.736;9.332;2023-04-24T04:28:29;1.33;;;0.50;;
20649;SDS011;10484;48.736;9.332;2023-04-24T04:30:56;0.53;;;0.53;;
20649;SDS011;10484;48.736;9.332;2023-04-24T04:33:22;0.70;;;0.50;;
20649;SDS011;10484;48.736;9.332;2023-04-24T04:35:48;0.70;;;0.40;;
20649;SDS011;10484;48.736;9.332;2023-04-24T04:38:15;0.93;;;0.50;;
20649;SDS011;10484;48.736;9.332;2023-04-24T04:40:41;1.00;;;0.60;;
20649;SDS011;10484;48.736;9.332;2023-04-24T04:43:07;0.70;;;0.60;;
20649;SDS011;10484;48.736;9.332;2023-04-24T04:45:33;2.17;;;0.80;;
20649;SDS011;10484;48.736;9.332;2023-04-24T04:47:59;2.00;;;0.80;;
20649;SDS011;10484;48.736;9.332;2023-04-24T04:50:27;0.73;;;0.67;;
20649;SDS011;10484;48.736;9.332;2023-04-24T04:52:52;0.60;;;0.50;;
20649;SDS011;10484;48.736;9.332;2023-04-24T04:55:18;0.90;;;0.60;;
20649;SDS011;10484;48.736;9.332;2023-04-24T04:57:45;1.47;;;0.80;;
20649;SDS011;10484;48.736;9.332;2023-04-24T05:00:11;1.17;;;1.07;;
20649;SDS011;10484;48.736;9.332;2023-04-24T05:02:37;2.50;;;1.20;;
20649;SDS011;10484;48.736;9.332;2023-04-24T05:05:03;1.50;;;0.73;;
20649;SDS011;10484;48.736;9.332;2023-04-24T05:07:30;0.77;;;0.70;;
20649;SDS011;10484;48.736;9.332;2023-04-24T05:09:56;2.60;;;0.87;;
20649;SDS011;10484;48.736;9.332;2023-04-24T05:12:21;1.50;;;0.93;;
20649;SDS011;10484;48.736;9.332;2023-04-24T05:14:47;0.73;;;0.70;;
20649;SDS011;10484;48.736;9.332;2023-04-24T05:17:12;0.87;;;0.77;;
20649;SDS011;10484;48.736;9.332;2023-04-24T05:19:38;0.90;;;0.73;;
20649;SDS011;10484;48.736;9.332;2023-04-24T05:22:04;1.10;;;0.70;;
20649;SDS011;10484;48.736;9.332;2023-04-24T05:24:31;1.10;;;0.80;;
20649;SDS011;10484;48.736;9.332;2023-04-24T05:26:58;1.33;;;0.80;;
20649;SDS011;10484;48.736;9.332;2023-04-24T05:29:24;1.20;;;1.10;;
20649;SDS011;10484;48.736;9.332;2023-04-24T05:31:51;1.90;;;0.87;;
20649;SDS011;10484;48.736;9.332;2023-04-24T05:34:16;1.87;;;1.00;;
20649;SDS011;10484;48.736;9.332;2023-04-24T05:36:42;2.53;;;1.27;;
20649;SDS011;10484;48.736;9.332;2023-04-24T05:39:08;2.03;;;0.90;;
20649;SDS011;10484;48.736;9.332;2023-04-24T05:41:34;1.20;;;1.10;;
20649;SDS011;10484;48.736;9.332;2023-04-24T05:43:59;1.40;;;1.30;;
20649;SDS011;10484;48.736;9.332;2023-04-24T05:46:25;2.13;;;1.97;;
20649;SDS011;10484;48.736;9.332;2023-04-24T05:48:51;1.67;;;1.03;;
20649;SDS011;10484;48.736;9.332;2023-04-24T05:51:16;1.43;;;1.33;;
20649;SDS011;10484;48.736;9.332;2023-04-24T05:53:42;1.40;;;1.30;;
20649;SDS011;10484;48.736;9.332;2023-04-24T05:56:07;1.40;;;1.07;;
20649;SDS011;10484;48.736;9.332;2023-04-24T05:58:33;3.47;;;1.33;;
20649;SDS011;10484;48.736;9.332;2023-04-24T06:00:59;1.70;;;1.30;;
20649;SDS011;10484;48.736;9.332;2023-04-24T06:03:26;2.70;;;1.50;;
20649;SDS011;10484;48.736;9.332;2023-04-24T06:05:52;2.90;;;1.83;;
20649;SDS011;10484;48.736;9.332;2023-04-24T06:08:18;2.67;;;1.77;;
20649;SDS011;10484;48.736;9.332;2023-04-24T06:10:44;2.60;;;1.70;;
20649;SDS011;10484;48.736;9.332;2023-04-24T06:13:10;2.03;;;1.90;;
20649;SDS011;10484;48.736;9.332;2023-04-24T06:15:36;2.50;;;1.70;;
20649;SDS011;10484;48.736;9.332;2023-04-24T06:18:02;2.40;;;1.27;;
20649;SDS011;10484;48.736;9.332;2023-04-24T06:20:28;3.43;;;1.80;;
20649;SDS011;10484;48.736;9.332;2023-04-24T06:22:53;2.47;;;1.37;;
20649;SDS011;10484;48.736;9.332;2023-04-24T06:25:19;2.30;;;1.40;;
20649;SDS011;10484;48.736;9.332;2023-04-24T06:27:45;1.90;;;1.43;;
20649;SDS011;10484;48.736;9.332;2023-04-24T06:30:11;1.67;;;1.50;;
20649;SDS011;10484;48.736;9.332;2023-04-24T06:32:37;2.03;;;1.43;;
20649;SDS011;10484;48.736;9.332;2023-04-24T06:35:03;3.00;;;1.13;;
20649;SDS011;10484;48.736;9.332;2023-04-24T06:37:29;1.77;;;1.50;;
20649;SDS011;10484;48.736;9.332;2023-04-24T06:39:54;2.47;;;1.57;;
20649;SDS011;10484;48.736;9.332;2023-04-24T06:42:20;4.30;;;2.70;;
20649;SDS011;10484;48.736;9.332;2023-04-24T06:44:46;4.10;;;2.40;;
20649;SDS011;10484;48.736;9.332;2023-04-24T06:47:12;1.60;;;1.50;;
20649;SDS011;10484;48.736;9.332;2023-04-24T06:49:38;2.10;;;1.60;;
20649;SDS011;10484;48.736;9.332;2023-04-24T06:52:04;1.70;;;0.97;;
20649;SDS011;10484;48.736;9.332;2023-04-24T06:54:31;6.80;;;1.60;;
20649;SDS011;10484;48.736;9.332;2023-04-24T06:56:57;2.70;;;1.77;;
20649;SDS011;10484;48.736;9.332;2023-04-24T06:59:23;2.73;;;1.20;;
20649;SDS011;10484;48.736;9.332;2023-04-24T07:01:49;1.60;;;1.10;;
20649;SDS011;10484;48.736;9.332;2023-04-24T07:04:16;2.93;;;2.07;;
20649;SDS011;10484;48.736;9.332;2023-04-24T07:06:42;2.30;;;1.57;;
20649;SDS011;10484;48.736;9.332;2023-04-24T07:09:10;1.93;;;1.60;;
20649;SDS011;10484;48.736;9.332;2023-04-24T07:11:36;1.90;;;1.67;;
20649;SDS011;10484;48.736;9.332;2023-04-24T07:14:03;2.00;;;1.60;;
20649;SDS011;10484;48.736;9.332;2023-04-24T07:16:29;2.20;;;1.80;;
20649;SDS011;10484;48.736;9.332;2023-04-24T07:18:55;2.00;;;1.70;;
20649;SDS011;10484;48.736;9.332;2023-04-24T07:21:20;1.70;;;1.60;;
20649;SDS011;10484;48.736;9.332;2023-04-24T07:23:46;2.53;;;1.30;;
20649;SDS011;10484;48.736;9.332;2023-04-24T07:26:12;1.40;;;1.20;;
20649;SDS011;10484;48.736;9.332;2023-04-24T07:28:39;2.27;;;1.40;;
20649;SDS011;10484;48.736;9.332;2023-04-24T07:31:06;2.60;;;1.43;;
20649;SDS011;10484;48.736;9.332;2023-04-24T07:33:33;1.40;;;1.30;;
20649;SDS011;10484;48.736;9.332;2023-04-24T07:35:59;4.80;;;1.10;;
20649;SDS011;10484;48.736;9.332;2023-04-24T07:38:25;2.43;;;1.30;;
20649;SDS011;10484;48.736;9.332;2023-04-24T07:40:51;1.13;;;0.60;;
20649;SDS011;10484;48.736;9.332;2023-04-24T07:43:17;0.90;;;0.70;;
20649;SDS011;10484;48.736;9.332;2023-04-24T07:45:43;2.10;;;0.80;;
20649;SDS011;10484;48.736;9.332;2023-04-24T07:48:09;4.10;;;1.17;;
20649;SDS011;10484;48.736;9.332;2023-04-24T07:50:35;1.47;;;0.90;;
20649;SDS011;10484;48.736;9.332;2023-04-24T07:53:01;0.87;;;0.83;;
20649;SDS011;10484;48.736;9.332;2023-04-24T07:55:27;2.17;;;1.07;;
20649;SDS011;10484;48.736;9.332;2023-04-24T07:57:53;1.17;;;0.80;;
20649;SDS011;10484;48.736;9.332;2023-04-24T08:00:18;1.30;;;1.00;;
20649;SDS011;10484;48.736;9.332;2023-04-24T08:02:44;0.97;;;0.80;;
20649;SDS011;10484;48.736;9.332;2023-04-24T08:05:10;15.40;;;1.87;;
20649;SDS011;10484;48.736;9.332;2023-04-24T08:07:36;4.73;;;1.10;;
20649;SDS011;10484;48.736;9.332;2023-04-24T08:10:01;3.43;;;0.90;;
20649;SDS011;10484;48.736;9.332;2023-04-24T08:12:28;1.13;;;0.70;;
20649;SDS011;10484;48.736;9.332;2023-04-24T08:14:54;0.80;;;0.77;;
20649;SDS011;10484;48.736;9.332;2023-04-24T08:17:20;2.70;;;0.73;;
20649;SDS011;10484;48.736;9.332;2023-04-24T08:19:45;3.10;;;1.20;;
20649;SDS011;10484;48.736;9.332;2023-04-24T08:22:13;1.30;;;0.80;;
20649;SDS011;10484;48.736;9.332;2023-04-24T08:24:39;0.87;;;0.83;;
20649;SDS011;10484;48.736;9.332;2023-04-24T08:27:05;1.73;;;0.80;;
20649;SDS011;10484;48.736;9.332;2023-04-24T08:29:30;1.60;;;1.30;;
20649;SDS011;10484;48.736;9.332;2023-04-24T08:31:57;0.97;;;0.80;;
20649;SDS011;10484;48.736;9.332;2023-04-24T08:34:22;2.10;;;0.70;;
20649;SDS011;10484;48.736;9.332;2023-04-24T08:36:48;1.70;;;1.07;;
20649;SDS011;10484;48.736;9.332;2023-04-24T08:39:14;1.00;;;0.80;;
20649;SDS011;10484;48.736;9.332;2023-04-24T08:41:41;4.90;;;1.10;;
20649;SDS011;10484;48.736;9.332;2023-04-24T08:44:10;2.37;;;0.70;;
20649;SDS011;10484;48.736;9.332;2023-04-24T08:46:37;1.70;;;1.00;;
20649;SDS011;10484;48.736;9.332;2023-04-24T08:49:05;1.80;;;1.20;;
20649;SDS011;10484;48.736;9.332;2023-04-24T08:51:31;1.07;;;0.80;;
20649;SDS011;10484;48.736;9.332;2023-04-24T08:53:56;0.70;;;0.43;;
20649;SDS011;10484;48.736;9.332;2023-04-24T08:56:23;2.00;;;0.70;;
20649;SDS011;10484;48.736;9.332;2023-04-24T08:58:53;1.20;;;1.07;;
20649;SDS011;10484;48.736;9.332;2023-04-24T09:01:21;0.97;;;0.97;;
20649;SDS011;10484;48.736;9.332;2023-04-24T09:03:49;2.43;;;0.77;;
20649;SDS011;10484;48.736;9.332;2023-04-24T09:06:16;1.43;;;0.87;;
20649;SDS011;10484;48.736;9.332;2023-04-24T09:08:44;4.93;;;1.07;;
20649;SDS011;10484;48.736;9.332;2023-04-24T09:11:10;2.33;;;0.90;;
20649;SDS011;10484;48.736;9.332;2023-04-24T09:13:37;1.80;;;0.80;;
20649;SDS011;10484;48.736;9.332;2023-04-24T09:16:03;1.30;;;0.67;;
20649;SDS011;10484;48.736;9.332;2023-04-24T09:18:29;4.83;;;0.87;;
20649;SDS011;10484;48.736;9.332;2023-04-24T09:20:58;1.83;;;1.10;;
20649;SDS011;10484;48.736;9.332;2023-04-24T09:23:29;3.40;;;1.10;;
20649;SDS011;10484;48.736;9.332;2023-04-24T09:25:55;0.83;;;0.83;;
20649;SDS011;10484;48.736;9.332;2023-04-24T09:28:26;0.97;;;0.80;;
20649;SDS011;10484;48.736;9.332;2023-04-24T09:31:29;1.00;;;0.60;;
20649;SDS011;10484;48.736;9.332;2023-04-24T09:33:56;2.13;;;1.00;;
20649;SDS011;10484;48.736;9.332;2023-04-24T09:36:31;1.37;;;0.93;;
20649;SDS011;10484;48.736;9.332;2023-04-24T09:39:13;0.60;;;0.60;;
20649;SDS011;10484;48.736;9.332;2023-04-24T09:44:18;0.80;;;0.80;;
20649;SDS011;10484;48.736;9.332;2023-04-24T09:46:51;1.13;;;0.77;;
20649;SDS011;10484;48.736;9.332;2023-04-24T09:49:30;1.60;;;0.97;;
20649;SDS011;10484;48.736;9.332;2023-04-24T09:52:04;3.10;;;0.90;;
20649;SDS011;10484;48.736;9.332;2023-04-24T09:54:34;1.20;;;0.73;;
20649;SDS011;10484;48.736;9.332;2023-04-24T09:57:01;2.40;;;0.97;;
20649;SDS011;10484;48.736;9.332;2023-04-24T09:59:27;1.47;;;0.70;;
20649;SDS011;10484;48.736;9.332;2023-04-24T10:01:52;1.83;;;0.93;;
20649;SDS011;10484;48.736;9.332;2023-04-24T10:04:22;0.77;;;0.73;;
20649;SDS011;10484;48.736;9.332;2023-04-24T10:06:49;0.73;;;0.73;;
20649;SDS011;10484;48.736;9.332;2023-04-24T10:09:20;0.77;;;0.67;;
20649;SDS011;10484;48.736;9.332;2023-04-24T10:11:49;0.80;;;0.50;;
20649;SDS011;10484;48.736;9.332;2023-04-24T10:14:19;1.73;;;0.70;;
20649;SDS011;10484;48.736;9.332;2023-04-24T10:16:46;1.63;;;0.50;;
20649;SDS011;10484;48.736;9.332;2023-04-24T10:19:13;0.70;;;0.60;;
20649;SDS011;10484;48.736;9.332;2023-04-24T10:21:41;1.00;;;0.70;;
20649;SDS011;10484;48.736;9.332;2023-04-24T10:24:11;3.40;;;0.70;;
20649;SDS011;10484;48.736;9.332;2023-04-24T10:26:38;2.03;;;0.50;;
20649;SDS011;10484;48.736;9.332;2023-04-24T10:29:05;0.70;;;0.70;;
20649;SDS011;10484;48.736;9.332;2023-04-24T10:31:34;1.23;;;0.90;;
20649;SDS011;10484;48.736;9.332;2023-04-24T10:34:01;0.70;;;0.70;;
20649;SDS011;10484;48.736;9.332;2023-04-24T10:36:28;3.17;;;0.80;;
20649;SDS011;10484;48.736;9.332;2023-04-24T10:38:57;0.87;;;0.53;;
20649;SDS011;10484;48.736;9.332;2023-04-24T10:41:25;1.93;;;0.80;;
20649;SDS011;10484;48.736;9.332;2023-04-24T10:44:07;0.73;;;0.60;;
20649;SDS011;10484;48.736;9.332;2023-04-24T10:46:38;0.70;;;0.70;;
20649;SDS011;10484;48.736;9.332;2023-04-24T10:49:07;1.10;;;0.70;;
20649;SDS011;10484;48.736;9.332;2023-04-24T10:51:49;0.50;;;0.47;;
20649;SDS011;10484;48.736;9.332;2023-04-24T10:54:28;0.70;;;0.40;;
20649;SDS011;10484;48.736;9.332;2023-04-24T10:57:25;1.40;;;0.60;;
20649;SDS011;10484;48.736;9.332;2023-04-24T10:59:49;2.73;;;0.70;;
20649;SDS011;10484;48.736;9.332;2023-04-24T11:02:16;0.50;;;0.47;;
20649;SDS011;10484;48.736;9.332;2023-04-24T11:04:42;1.27;;;0.40;;
20649;SDS011;10484;48.736;9.332;2023-04-24T11:07:09;1.27;;;0.60;;
20649;SDS011;10484;48.736;9.332;2023-04-24T11:09:35;0.70;;;0.63;;
20649;SDS011;10484;48.736;9.332;2023-04-24T11:12:07;1.33;;;0.50;;
20649;SDS011;10484;48.736;9.332;2023-04-24T11:20:00;0.57;;;0.50;;
20649;SDS011;10484;48.736;9.332;2023-04-24T11:22:28;0.50;;;0.50;;
20649;SDS011;10484;48.736;9.332;2023-04-24T11:24:58;0.50;;;0.30;;
20649;SDS011;10484;48.736;9.332;2023-04-24T11:27:28;0.80;;;0.70;;
20649;SDS011;10484;48.736;9.332;2023-04-24T11:32:28;0.73;;;0.50;;
20649;SDS011;10484;48.736;9.332;2023-04-24T11:35:04;0.70;;;0.60;;
20649;SDS011;10484;48.736;9.332;2023-04-24T11:37:34;0.50;;;0.50;;
20649;SDS011;10484;48.736;9.332;2023-04-24T11:40:02;1.03;;;0.63;;
20649;SDS011;10484;48.736;9.332;2023-04-24T11:42:33;1.17;;;0.73;;
20649;SDS011;10484;48.736;9.332;2023-04-24T11:47:35;1.40;;;0.70;;
20649;SDS011;10484;48.736;9.332;2023-04-24T11:50:01;1.80;;;0.67;;
20649;SDS011;10484;48.736;9.332;2023-04-24T11:52:29;0.70;;;0.70;;
20649;SDS011;10484;48.736;9.332;2023-04-24T11:54:55;1.00;;;0.90;;
20649;SDS011;10484;48.736;9.332;2023-04-24T11:57:21;1.33;;;0.80;;
20649;SDS011;10484;48.736;9.332;2023-04-24T11:59:51;1.80;;;0.87;;
20649;SDS011;10484;48.736;9.332;2023-04-24T12:02:22;1.40;;;1.10;;
20649;SDS011;10484;48.736;9.332;2023-04-24T12:04:49;0.60;;;0.50;;
20649;SDS011;10484;48.736;9.332;2023-04-24T12:07:15;1.47;;;0.70;;
20649;SDS011;10484;48.736;9.332;2023-04-24T12:09:41;1.97;;;1.03;;
20649;SDS011;10484;48.736;9.332;2023-04-24T12:12:07;1.33;;;0.83;;
20649;SDS011;10484;48.736;9.332;2023-04-24T12:14:41;0.90;;;0.70;;
20649;SDS011;10484;48.736;9.332;2023-04-24T12:17:13;0.80;;;0.80;;
20649;SDS011;10484;48.736;9.332;2023-04-24T12:19:44;1.30;;;0.90;;
20649;SDS011;10484;48.736;9.332;2023-04-24T12:22:13;0.50;;;0.47;;
20649;SDS011;10484;48.736;9.332;2023-04-24T12:27:32;3.13;;;0.50;;
20649;SDS011;10484;48.736;9.332;2023-04-24T12:30:02;0.67;;;0.50;;
20649;SDS011;10484;48.736;9.332;2023-04-24T12:32:29;1.53;;;0.73;;
20649;SDS011;10484;48.736;9.332;2023-04-24T12:34:55;1.57;;;0.70;;
20649;SDS011;10484;48.736;9.332;2023-04-24T12:37:24;0.60;;;0.50;;
20649;SDS011;10484;48.736;9.332;2023-04-24T12:40:05;0.90;;;0.67;;
20649;SDS011;10484;48.736;9.332;2023-04-24T12:42:32;0.87;;;0.83;;
20649;SDS011;10484;48.736;9.332;2023-04-24T12:45:04;2.33;;;0.80;;
20649;SDS011;10484;48.736;9.332;2023-04-24T12:47:33;0.80;;;0.60;;
20649;SDS011;10484;48.736;9.332;2023-04-24T12:49:59;1.47;;;1.20;;
20649;SDS011;10484;48.736;9.332;2023-04-24T12:52:26;0.90;;;0.77;;
20649;SDS011;10484;48.736;9.332;2023-04-24T12:54:53;1.70;;;0.90;;
20649;SDS011;10484;48.736;9.332;2023-04-24T12:57:20;1.13;;;0.60;;
20649;SDS011;10484;48.736;9.332;2023-04-24T12:59:46;1.17;;;0.70;;
20649;SDS011;10484;48.736;9.332;2023-04-24T13:02:12;1.73;;;0.83;;
20649;SDS011;10484;48.736;9.332;2023-04-24T13:04:37;1.10;;;0.67;;
20649;SDS011;10484;48.736;9.332;2023-04-24T13:07:03;1.10;;;0.93;;
20649;SDS011;10484;48.736;9.332;2023-04-24T13:09:30;1.90;;;0.90;;
20649;SDS011;10484;48.736;9.332;2023-04-24T13:11:56;1.10;;;0.70;;
20649;SDS011;10484;48.736;9.332;2023-04-24T13:14:22;0.73;;;0.73;;
20649;SDS011;10484;48.736;9.332;2023-04-24T13:16:48;0.80;;;0.50;;
20649;SDS011;10484;48.736;9.332;2023-04-24T13:19:14;1.10;;;0.70;;
20649;SDS011;10484;48.736;9.332;2023-04-24T13:21:40;2.93;;;0.80;;
20649;SDS011;10484;48.736;9.332;2023-04-24T13:24:05;1.93;;;1.00;;
20649;SDS011;10484;48.736;9.332;2023-04-24T13:26:32;1.13;;;1.03;;
20649;SDS011;10484;48.736;9.332;2023-04-24T13:28:58;1.57;;;0.87;;
20649;SDS011;10484;48.736;9.332;2023-04-24T13:31:23;0.97;;;0.97;;
20649;SDS011;10484;48.736;9.332;2023-04-24T13:33:49;0.80;;;0.70;;
20649;SDS011;10484;48.736;9.332;2023-04-24T13:36:15;0.90;;;0.80;;
20649;SDS011;10484;48.736;9.332;2023-04-24T13:38:42;2.20;;;1.00;;
20649;SDS011;10484;48.736;9.332;2023-04-24T13:41:09;0.77;;;0.77;;
20649;SDS011;10484;48.736;9.332;2023-04-24T13:43:35;0.80;;;0.50;;
20649;SDS011;10484;48.736;9.332;2023-04-24T13:46:00;1.83;;;1.10;;
20649;SDS011;10484;48.736;9.332;2023-04-24T13:48:27;3.07;;;1.60;;
20649;SDS011;10484;48.736;9.332;2023-04-24T13:50:53;2.70;;;1.00;;
20649;SDS011;10484;48.736;9.332;2023-04-24T13:53:19;1.13;;;1.00;;
20649;SDS011;10484;48.736;9.332;2023-04-24T13:55:45;0.63;;;0.63;;
20649;SDS011;10484;48.736;9.332;2023-04-24T13:58:10;3.53;;;0.97;;
20649;SDS011;10484;48.736;9.332;2023-04-24T14:00:36;2.73;;;1.33;;
20649;SDS011;10484;48.736;9.332;2023-04-24T14:03:01;1.67;;;0.70;;
20649;SDS011;10484;48.736;9.332;2023-04-24T14:05:27;1.37;;;0.73;;
20649;SDS011;10484;48.736;9.332;2023-04-24T14:07:52;1.10;;;0.80;;
20649;SDS011;10484;48.736;9.332;2023-04-24T14:10:18;1.00;;;0.70;;
20649;SDS011;10484;48.736;9.332;2023-04-24T14:12:44;1.33;;;1.20;;
20649;SDS011;10484;48.736;9.332;2023-04-24T14:15:09;0.97;;;0.97;;
20649;SDS011;10484;48.736;9.332;2023-04-24T14:17:36;1.00;;;0.90;;
20649;SDS011;10484;48.736;9.332;2023-04-24T14:20:02;1.50;;;1.40;;
20649;SDS011;10484;48.736;9.332;2023-04-24T14:22:29;1.20;;;1.10;;
20649;SDS011;10484;48.736;9.332;2023-04-24T14:24:55;1.20;;;1.07;;
20649;SDS011;10484;48.736;9.332;2023-04-24T14:27:20;1.53;;;0.87;;
20649;SDS011;10484;48.736;9.332;2023-04-24T14:29:46;0.90;;;0.80;;
20649;SDS011;10484;48.736;9.332;2023-04-24T14:32:11;0.97;;;0.87;;
20649;SDS011;10484;48.736;9.332;2023-04-24T14:34:39;1.00;;;0.80;;
20649;SDS011;10484;48.736;9.332;2023-04-24T14:37:05;1.47;;;1.37;;
20649;SDS011;10484;48.736;9.332;2023-04-24T14:39:31;1.27;;;0.80;;
20649;SDS011;10484;48.736;9.332;2023-04-24T14:41:56;1.93;;;1.30;;
20649;SDS011;10484;48.736;9.332;2023-04-24T14:44:22;1.37;;;0.70;;
20649;SDS011;10484;48.736;9.332;2023-04-24T14:46:48;1.37;;;0.80;;
20649;SDS011;10484;48.736;9.332;2023-04-24T14:49:14;0.60;;;0.60;;
20649;SDS011;10484;48.736;9.332;2023-04-24T14:51:39;1.10;;;1.00;;
20649;SDS011;10484;48.736;9.332;2023-04-24T14:54:06;1.30;;;0.80;;
20649;SDS011;10484;48.736;9.332;2023-04-24T14:56:32;0.80;;;0.70;;
20649;SDS011;10484;48.736;9.332;2023-04-24T14:58:57;0.97;;;0.80;;
20649;SDS011;10484;48.736;9.332;2023-04-24T15:01:23;0.90;;;0.73;;